Terminal Aerodrome Forecast
Issued by NWS

Home | Current Version | Previous Version | Text Only | Print | Product List | Glossary On
Versions: 1 2 3 4 5 6 7 8 9 10 11 12 13 14 15 16
000
FTUS43 KMQT 280500
TAFIWD
TAF
KIWD 280531Z 2806/2906 25009KT P6SM VCSH BKN040
     FM281000 27009KT 6SM -SHSN OVC020
     FM281400 30011KT 4SM -SHSN OVC012
     FM281800 31010KT P6SM -SHSN OVC020
     FM282100 31009KT P6SM -SHSN BKN035
      AMD LTD TO CLD VIS AND WIND=

USA.gov is the U.S. government's official web portal to all federal, state and local government web resources and services.